Terminal Aerodrome Forecast
Issued by NWS Memphis, TN

Home | Current Version | Previous Version | Text Only | Print | Product List | Glossary On
Versions: 1 2 3 4 5 6 7 8 9 10 11 12 13 14 15 16 17
197
FTUS44 KMEG 171130
TAFMKL
TAF
KMKL 171130Z 1712/1812 21009KT P6SM OVC012
     FM171800 23012G18KT P6SM VCTS SCT025CB BKN040
      TEMPO 1718/1722 6SM SHRA BKN025
     FM172300 23006KT P6SM FEW040 SCT150
     FM181000 29004KT P6SM FEW250=

USA.gov is the U.S. government's official web portal to all federal, state and local government web resources and services.